createdAt,value
2022-10-04T00:00:02.919Z,9.43
2022-10-04T00:01:02.500Z,9.43
2022-10-04T00:02:02.896Z,9.42
2022-10-04T00:03:02.709Z,9.46
2022-10-04T00:04:02.489Z,9.46
2022-10-04T00:05:03.021Z,9.48
2022-10-04T00:06:02.665Z,9.48
2022-10-04T00:07:02.875Z,9.50
2022-10-04T00:08:02.684Z,9.52
2022-10-04T00:09:02.902Z,9.52
2022-10-04T00:10:02.709Z,9.52
2022-10-04T00:11:03.128Z,9.53
2022-10-04T00:12:02.499Z,9.53
2022-10-04T00:13:02.302Z,9.50
2022-10-04T00:14:02.740Z,9.52
2022-10-04T00:15:02.776Z,9.53
2022-10-04T00:16:02.330Z,9.53
2022-10-04T00:17:02.023Z,9.56
2022-10-04T00:18:01.890Z,9.56
2022-10-04T00:19:02.017Z,9.56
2022-10-04T00:20:01.869Z,9.58
2022-10-04T00:21:02.404Z,9.60
2022-10-04T00:22:02.595Z,9.60
2022-10-04T00:23:02.164Z,9.61
2022-10-04T00:24:02.270Z,9.58
2022-10-04T00:25:02.045Z,9.57
2022-10-04T00:26:02.430Z,9.61
2022-10-04T00:27:02.265Z,9.61
2022-10-04T00:28:02.791Z,9.63
2022-10-04T00:29:02.364Z,9.63
2022-10-04T00:30:02.854Z,9.63
2022-10-04T00:31:02.391Z,9.64
2022-10-04T00:32:01.924Z,9.61
2022-10-04T00:33:02.332Z,9.63
2022-10-04T00:34:02.058Z,9.64
2022-10-04T00:35:01.967Z,9.64
2022-10-04T00:36:02.426Z,9.61
2022-10-04T00:37:02.711Z,9.63
2022-10-04T00:38:02.520Z,9.60
2022-10-04T00:39:02.776Z,9.60
2022-10-04T00:40:03.015Z,9.61
2022-10-04T00:41:02.772Z,9.63
2022-10-04T00:42:02.511Z,9.58
2022-10-04T00:43:02.979Z,9.61
2022-10-04T00:44:02.760Z,9.58
2022-10-04T00:45:02.529Z,9.57
2022-10-04T00:46:03.149Z,9.53
2022-10-04T00:47:01.858Z,9.56
2022-10-04T00:48:02.117Z,9.52
2022-10-04T00:49:02.353Z,9.52
2022-10-04T00:50:02.349Z,9.49
2022-10-04T00:51:01.856Z,9.50
2022-10-04T00:52:02.311Z,9.53
2022-10-04T00:53:02.818Z,9.53
2022-10-04T00:54:02.223Z,9.50
2022-10-04T00:55:02.628Z,9.49
2022-10-04T00:56:02.451Z,9.46
2022-10-04T00:57:01.954Z,9.46
2022-10-04T00:58:02.406Z,9.45
2022-10-04T00:59:02.202Z,9.48
2022-10-04T01:00:02.328Z,9.48
2022-10-04T01:01:01.933Z,9.48
2022-10-04T01:02:02.498Z,9.45
2022-10-04T01:03:02.837Z,9.45
2022-10-04T01:04:02.932Z,9.45
2022-10-04T01:05:02.420Z,9.45
2022-10-04T01:06:02.470Z,9.40
2022-10-04T01:07:02.967Z,9.40
2022-10-04T01:08:03.246Z,9.40
2022-10-04T01:09:02.884Z,9.39
2022-10-04T01:10:03.309Z,9.35
2022-10-04T01:11:03.035Z,9.39
2022-10-04T01:12:02.501Z,9.38
2022-10-04T01:13:02.877Z,9.39
2022-10-04T01:14:02.639Z,9.40
2022-10-04T01:15:02.420Z,9.45
2022-10-04T01:16:02.954Z,9.45
2022-10-04T01:17:02.564Z,9.43
2022-10-04T01:18:05.398Z,9.45
2022-10-04T01:19:02.599Z,9.45
2022-10-04T01:20:02.909Z,9.45
2022-10-04T01:21:02.691Z,9.46
2022-10-04T01:22:03.139Z,9.43
2022-10-04T01:23:03.585Z,9.45
2022-10-04T01:24:03.541Z,9.42
2022-10-04T01:25:03.044Z,9.43
2022-10-04T01:26:03.562Z,9.45
2022-10-04T01:27:02.828Z,9.45
2022-10-04T01:28:02.746Z,9.46
2022-10-04T01:29:02.603Z,9.48
2022-10-04T01:30:03.115Z,9.42
2022-10-04T01:31:02.824Z,9.43
2022-10-04T01:32:03.237Z,9.45
2022-10-04T01:33:03.650Z,9.45
2022-10-04T01:34:03.486Z,9.49
2022-10-04T01:35:03.320Z,9.49
2022-10-04T01:36:03.672Z,9.50
2022-10-04T01:37:03.008Z,9.50
2022-10-04T01:38:02.783Z,9.52
2022-10-04T01:39:02.638Z,9.49
2022-10-04T01:40:02.741Z,9.52
2022-10-04T01:41:03.277Z,9.57
2022-10-04T01:42:03.148Z,9.57
2022-10-04T01:43:03.044Z,9.58
2022-10-04T01:44:02.908Z,9.60
2022-10-04T01:45:02.749Z,9.61
2022-10-04T01:46:03.265Z,9.60
2022-10-04T01:47:03.175Z,9.58
2022-10-04T01:48:02.973Z,9.61
2022-10-04T01:49:02.817Z,9.60
2022-10-04T01:50:03.286Z,9.60
2022-10-04T01:51:03.115Z,9.63
2022-10-04T01:52:02.401Z,9.63
2022-10-04T01:53:03.088Z,9.66
2022-10-04T01:54:02.859Z,9.66
2022-10-04T01:55:02.484Z,9.66
2022-10-04T01:56:02.242Z,9.70
2022-10-04T01:57:02.801Z,9.73
2022-10-04T01:58:02.394Z,9.75
2022-10-04T01:59:02.539Z,9.75
2022-10-04T02:00:02.953Z,9.75
2022-10-04T02:01:02.388Z,9.76
2022-10-04T02:02:03.034Z,9.73
2022-10-04T02:03:02.607Z,9.73
2022-10-04T02:04:03.063Z,9.75
2022-10-04T02:05:02.730Z,9.79
2022-10-04T02:06:02.550Z,9.78
2022-10-04T02:07:03.015Z,9.76
2022-10-04T02:08:03.010Z,9.76
2022-10-04T02:09:03.171Z,9.78
2022-10-04T02:10:02.927Z,9.78
2022-10-04T02:11:02.645Z,9.78
2022-10-04T02:12:02.734Z,9.79
2022-10-04T02:13:02.834Z,9.81
2022-10-04T02:14:02.927Z,9.81
2022-10-04T02:15:02.823Z,9.78
2022-10-04T02:16:03.277Z,9.79
2022-10-04T02:17:02.499Z,9.79
2022-10-04T02:18:02.236Z,9.78
2022-10-04T02:19:02.645Z,9.75
2022-10-04T02:20:02.391Z,9.75
2022-10-04T02:21:02.772Z,9.78
2022-10-04T02:22:03.029Z,9.75
2022-10-04T02:23:02.617Z,9.75
2022-10-04T02:24:03.084Z,9.76
2022-10-04T02:25:02.785Z,9.76
2022-10-04T02:26:02.580Z,9.76
2022-10-04T02:27:02.910Z,9.81
2022-10-04T02:28:02.795Z,9.79
2022-10-04T02:29:02.847Z,9.81
2022-10-04T02:30:02.757Z,9.82
2022-10-04T02:31:02.745Z,9.82
2022-10-04T02:32:03.225Z,9.81
2022-10-04T02:33:02.953Z,9.82
2022-10-04T02:34:02.783Z,9.78
2022-10-04T02:35:03.289Z,9.76
2022-10-04T02:36:02.841Z,9.73
2022-10-04T02:37:03.363Z,9.75
2022-10-04T02:38:03.206Z,9.75
2022-10-04T02:39:02.944Z,9.75
2022-10-04T02:40:03.424Z,9.75
2022-10-04T02:41:03.151Z,9.73
2022-10-04T02:42:02.734Z,9.71
2022-10-04T02:43:02.855Z,9.73
2022-10-04T02:44:02.652Z,9.70
2022-10-04T02:45:02.515Z,9.71
2022-10-04T02:46:02.841Z,9.71
2022-10-04T02:47:02.484Z,9.71
2022-10-04T02:48:02.513Z,9.71
2022-10-04T02:49:02.922Z,9.71
2022-10-04T02:50:02.881Z,9.70
2022-10-04T02:51:02.769Z,9.71
2022-10-04T02:52:02.621Z,9.67
2022-10-04T02:53:02.447Z,9.67
2022-10-04T02:54:03.742Z,9.67
2022-10-04T02:55:02.611Z,9.67
2022-10-04T02:56:02.390Z,9.64
2022-10-04T02:57:02.808Z,9.63
2022-10-04T02:58:02.546Z,9.63
2022-10-04T02:59:02.524Z,9.64
2022-10-04T03:01:02.730Z,9.63
2022-10-04T03:02:03.277Z,9.61
2022-10-04T03:03:02.961Z,9.63
2022-10-04T03:04:02.741Z,9.61
2022-10-04T03:05:03.196Z,9.60
2022-10-04T03:06:02.892Z,9.52
2022-10-04T03:07:02.869Z,9.58
2022-10-04T03:08:03.445Z,9.56
2022-10-04T03:09:03.031Z,9.57
2022-10-04T03:11:03.343Z,9.50
2022-10-04T03:12:02.799Z,9.49
2022-10-04T03:13:02.885Z,9.49
2022-10-04T03:14:02.634Z,9.52
2022-10-04T03:15:02.957Z,9.53
2022-10-04T03:16:02.575Z,9.53
2022-10-04T03:17:03.003Z,9.52
2022-10-04T03:18:02.779Z,9.52
2022-10-04T03:19:02.335Z,9.53
2022-10-04T03:20:02.728Z,9.52
2022-10-04T03:21:02.715Z,9.52
2022-10-04T03:22:03.016Z,9.48
2022-10-04T03:23:03.758Z,9.49
2022-10-04T03:24:03.205Z,9.48
2022-10-04T03:25:02.694Z,9.48
2022-10-04T03:26:03.112Z,9.48
2022-10-04T03:27:03.455Z,9.46
2022-10-04T03:28:03.463Z,9.43
2022-10-04T03:29:03.306Z,9.42
2022-10-04T03:30:03.057Z,9.40
2022-10-04T03:31:03.490Z,9.39
2022-10-04T03:32:02.674Z,9.39
2022-10-04T03:33:02.491Z,9.40
2022-10-04T03:34:02.220Z,9.38
2022-10-04T03:35:02.558Z,9.35
2022-10-04T03:36:02.291Z,9.34
2022-10-04T03:37:02.943Z,9.32
2022-10-04T03:38:02.788Z,9.31
2022-10-04T03:39:03.067Z,9.27
2022-10-04T03:40:03.033Z,9.23
2022-10-04T03:41:02.740Z,9.21
2022-10-04T03:42:03.442Z,9.18
2022-10-04T03:43:03.141Z,9.15
2022-10-04T03:44:05.122Z,9.13
2022-10-04T03:45:03.000Z,9.12
2022-10-04T03:46:03.507Z,9.12
2022-10-04T03:47:02.355Z,9.10
2022-10-04T03:48:02.664Z,9.10
2022-10-04T03:49:02.644Z,9.12
2022-10-04T03:50:02.451Z,9.15
2022-10-04T03:51:02.935Z,9.16
2022-10-04T03:52:02.466Z,9.15
2022-10-04T03:53:02.839Z,9.15
2022-10-04T03:54:02.602Z,9.13
2022-10-04T03:55:03.049Z,9.12
2022-10-04T03:56:04.548Z,9.06
2022-10-04T03:57:03.174Z,9.02
2022-10-04T03:58:03.311Z,8.97
2022-10-04T03:59:03.145Z,8.97
2022-10-04T04:00:02.965Z,8.97
2022-10-04T04:01:03.414Z,8.99
2022-10-04T04:02:02.123Z,8.94
2022-10-04T04:03:02.014Z,8.93
2022-10-04T04:04:02.546Z,8.99
2022-10-04T04:05:01.975Z,9.02
2022-10-04T04:06:02.363Z,9.04
2022-10-04T04:07:02.139Z,9.04
2022-10-04T04:08:02.032Z,9.09
2022-10-04T04:09:02.370Z,9.13
2022-10-04T04:10:02.304Z,9.18
2022-10-04T04:11:02.053Z,9.21
2022-10-04T04:12:02.540Z,9.25
2022-10-04T04:13:02.956Z,9.27
2022-10-04T04:14:02.806Z,9.21
2022-10-04T04:15:02.546Z,9.24
2022-10-04T04:16:02.589Z,9.21
2022-10-04T04:17:02.238Z,9.24
2022-10-04T04:18:02.121Z,9.24
2022-10-04T04:19:02.199Z,9.24
2022-10-04T04:20:06.941Z,9.24
2022-10-04T04:21:02.374Z,9.21
2022-10-04T04:22:02.123Z,9.18
2022-10-04T04:23:01.978Z,9.18
2022-10-04T04:24:02.430Z,9.13
2022-10-04T04:25:02.205Z,9.15
2022-10-04T04:26:02.111Z,9.13
2022-10-04T04:27:02.581Z,9.18
2022-10-04T04:28:02.989Z,9.20
2022-10-04T04:29:02.440Z,9.21
2022-10-04T04:30:02.597Z,9.12
2022-10-04T04:31:02.439Z,9.10
2022-10-04T04:32:01.927Z,9.05
2022-10-04T04:33:02.363Z,9.02
2022-10-04T04:34:02.079Z,8.99
2022-10-04T04:35:02.350Z,9.05
2022-10-04T04:36:01.970Z,9.04
2022-10-04T04:37:02.556Z,9.05
2022-10-04T04:38:02.411Z,9.01
2022-10-04T04:39:02.863Z,9.01
2022-10-04T04:40:02.667Z,9.01
2022-10-04T04:41:02.948Z,9.05
2022-10-04T04:42:02.279Z,9.06
2022-10-04T04:43:02.029Z,9.05
2022-10-04T04:44:02.492Z,9.04
2022-10-04T04:45:02.320Z,9.09
2022-10-04T04:46:26.131Z,9.06
2022-10-04T04:47:02.407Z,9.10
2022-10-04T04:48:02.114Z,9.12
2022-10-04T04:49:02.049Z,9.15
2022-10-04T04:50:02.569Z,9.13
2022-10-04T04:51:02.503Z,9.18
2022-10-04T04:52:01.912Z,9.20
2022-10-04T04:53:01.621Z,9.23
2022-10-04T04:54:02.054Z,9.24
2022-10-04T04:55:01.710Z,9.25
2022-10-04T04:56:04.593Z,9.25
2022-10-04T04:57:02.520Z,9.27
2022-10-04T04:58:02.310Z,9.25
2022-10-04T04:59:02.403Z,9.28
2022-10-04T05:00:02.862Z,9.28
2022-10-04T05:01:02.330Z,9.27
2022-10-04T05:02:02.622Z,9.28
2022-10-04T05:03:02.290Z,9.27
2022-10-04T05:04:02.875Z,9.28
2022-10-04T05:05:02.331Z,9.30
2022-10-04T05:06:02.731Z,9.25
2022-10-04T05:07:03.145Z,9.25
2022-10-04T05:08:02.932Z,9.24
2022-10-04T05:09:03.483Z,9.27
2022-10-04T05:10:03.117Z,9.24
2022-10-04T05:11:02.847Z,9.24
2022-10-04T05:12:02.632Z,9.25
2022-10-04T05:13:02.292Z,9.27
2022-10-04T05:14:02.442Z,9.23
2022-10-04T05:15:02.213Z,9.24
2022-10-04T05:16:02.497Z,9.24
2022-10-04T05:17:02.964Z,9.23
2022-10-04T05:18:02.725Z,9.20
2022-10-04T05:19:03.155Z,9.21
2022-10-04T05:20:03.043Z,9.18
2022-10-04T05:21:02.727Z,9.16
2022-10-04T05:22:02.941Z,9.12
2022-10-04T05:23:02.872Z,9.15
2022-10-04T05:24:03.317Z,9.10
2022-10-04T05:25:03.107Z,9.12
2022-10-04T05:26:02.901Z,9.09
2022-10-04T05:27:02.517Z,9.05
2022-10-04T05:28:02.440Z,9.09
2022-10-04T05:29:02.147Z,9.06
2022-10-04T05:30:02.707Z,9.10
2022-10-04T05:31:02.245Z,9.12
2022-10-04T05:32:02.830Z,9.04
2022-10-04T05:33:02.784Z,9.04
2022-10-04T05:34:02.665Z,9.04
2022-10-04T05:35:02.455Z,9.05
2022-10-04T05:36:02.398Z,9.06
2022-10-04T05:37:02.858Z,9.06
2022-10-04T05:38:02.776Z,9.05
2022-10-04T05:39:02.627Z,9.06
2022-10-04T05:40:02.506Z,9.05
2022-10-04T05:41:02.549Z,9.09
2022-10-04T05:42:03.148Z,9.06
2022-10-04T05:43:02.734Z,9.05
2022-10-04T05:44:03.190Z,9.04
2022-10-04T05:45:02.992Z,9.05
2022-10-04T05:46:02.988Z,9.02
2022-10-04T05:47:03.431Z,9.09
2022-10-04T05:48:03.350Z,9.06
2022-10-04T05:49:03.434Z,9.09
2022-10-04T05:50:03.266Z,9.09
2022-10-04T05:51:03.051Z,9.09
2022-10-04T05:52:03.088Z,9.09
2022-10-04T05:53:02.944Z,9.09
2022-10-04T05:54:02.892Z,9.09
2022-10-04T05:55:02.796Z,9.12
2022-10-04T05:56:02.657Z,9.15
2022-10-04T05:57:03.370Z,9.15
2022-10-04T05:58:03.217Z,9.16
2022-10-04T05:59:03.016Z,9.16
2022-10-04T06:00:04.561Z,9.15
2022-10-04T06:01:02.861Z,9.21
2022-10-04T06:02:02.479Z,9.21
2022-10-04T06:03:01.993Z,9.23
2022-10-04T06:04:02.548Z,9.21
2022-10-04T06:05:02.213Z,9.24
2022-10-04T06:06:02.151Z,9.23
2022-10-04T06:07:02.714Z,9.24
2022-10-04T06:08:02.242Z,9.25
2022-10-04T06:09:02.157Z,9.27
2022-10-04T06:10:02.668Z,9.25
2022-10-04T06:11:02.576Z,9.24
2022-10-04T06:12:03.105Z,9.25
2022-10-04T06:13:02.782Z,9.28
2022-10-04T06:14:02.649Z,9.28
2022-10-04T06:15:02.601Z,9.30
2022-10-04T06:16:02.940Z,9.30
2022-10-04T06:17:03.112Z,9.32
2022-10-04T06:18:02.897Z,9.28
2022-10-04T06:19:02.796Z,9.27
2022-10-04T06:20:02.690Z,9.27
2022-10-04T06:21:02.648Z,9.30
2022-10-04T06:22:01.671Z,9.31
2022-10-04T06:23:02.290Z,9.32
2022-10-04T06:24:02.061Z,9.32
2022-10-04T06:25:02.200Z,9.32
2022-10-04T06:26:02.183Z,9.34
2022-10-04T06:27:02.272Z,9.39
2022-10-04T06:28:02.950Z,9.42
2022-10-04T06:29:02.655Z,9.46
2022-10-04T06:30:02.639Z,9.45
2022-10-04T06:31:02.630Z,9.49
2022-10-04T06:32:01.564Z,9.50
2022-10-04T06:33:02.051Z,9.49
2022-10-04T06:34:02.044Z,9.49
2022-10-04T06:35:01.989Z,9.50
2022-10-04T06:36:02.072Z,9.53
2022-10-04T06:37:02.022Z,9.58
2022-10-04T06:38:02.090Z,9.60
2022-10-04T06:39:04.473Z,9.66
2022-10-04T06:40:02.257Z,9.64
2022-10-04T06:41:02.075Z,9.61
2022-10-04T06:42:01.699Z,9.61
2022-10-04T06:43:02.130Z,9.63
2022-10-04T06:44:01.747Z,9.60
2022-10-04T06:45:02.228Z,9.58
2022-10-04T06:46:01.646Z,9.60
2022-10-04T06:47:02.151Z,9.67
2022-10-04T06:48:02.430Z,9.70
2022-10-04T06:49:02.382Z,9.75
2022-10-04T06:50:02.113Z,9.78
2022-10-04T06:51:02.044Z,9.83
2022-10-04T06:52:02.375Z,9.85
2022-10-04T06:53:02.844Z,9.85
2022-10-04T06:54:02.691Z,9.86
2022-10-04T06:55:02.852Z,9.88
2022-10-04T06:56:02.729Z,9.91
2022-10-04T06:57:02.443Z,9.93
2022-10-04T06:58:02.404Z,9.93
2022-10-04T06:59:02.353Z,9.96
2022-10-04T07:00:02.938Z,9.96
2022-10-04T07:01:02.658Z,9.99
2022-10-04T07:02:02.057Z,9.97
2022-10-04T07:03:02.057Z,10.01
2022-10-04T07:04:01.948Z,10.04
2022-10-04T07:05:09.819Z,10.09
2022-10-04T07:06:02.385Z,10.12
2022-10-04T07:07:02.211Z,10.12
2022-10-04T07:08:01.877Z,10.09
2022-10-04T07:09:01.869Z,10.07
2022-10-04T07:10:02.454Z,10.06
2022-10-04T07:11:02.375Z,10.04
2022-10-04T07:12:02.312Z,10.03
2022-10-04T07:13:02.645Z,10.01
2022-10-04T07:14:02.524Z,10.03
2022-10-04T07:15:02.351Z,10.04
2022-10-04T07:16:02.274Z,10.04
2022-10-04T07:17:01.707Z,10.04
2022-10-04T07:18:02.249Z,10.04
2022-10-04T07:19:01.791Z,10.09
2022-10-04T07:20:01.641Z,10.12
2022-10-04T07:21:02.249Z,10.14
2022-10-04T07:22:01.908Z,10.15
2022-10-04T07:23:01.836Z,10.21
2022-10-04T07:24:01.739Z,10.22
2022-10-04T07:25:02.319Z,10.28
2022-10-04T07:26:01.992Z,10.26
2022-10-04T07:27:01.752Z,10.30
2022-10-04T07:28:02.270Z,10.30
2022-10-04T07:29:02.102Z,10.37
2022-10-04T07:30:02.048Z,10.36
2022-10-04T07:31:02.052Z,10.39
2022-10-04T07:32:02.552Z,10.44
2022-10-04T07:33:02.393Z,10.53
2022-10-04T07:34:02.370Z,10.55
2022-10-04T07:35:03.008Z,10.59
2022-10-04T07:36:02.597Z,10.59
2022-10-04T07:37:02.261Z,10.65
2022-10-04T07:38:02.149Z,10.68
2022-10-04T07:39:02.570Z,10.78
2022-10-04T07:40:02.171Z,10.83
2022-10-04T07:41:02.093Z,10.88
2022-10-04T07:42:02.783Z,10.94
2022-10-04T07:43:02.727Z,10.95
2022-10-04T07:44:02.597Z,10.99
2022-10-04T07:45:02.604Z,11.07
2022-10-04T07:46:02.642Z,11.13
2022-10-04T07:47:02.356Z,11.19
2022-10-04T07:48:02.694Z,11.24
2022-10-04T07:49:02.479Z,11.28
2022-10-04T07:50:02.419Z,11.34
2022-10-04T07:51:02.357Z,11.38
2022-10-04T07:52:02.549Z,11.39
2022-10-04T07:53:07.147Z,11.44
2022-10-04T07:54:02.382Z,11.52
2022-10-04T07:55:02.376Z,11.56
2022-10-04T07:56:02.237Z,11.61
2022-10-04T07:57:02.815Z,11.67
2022-10-04T07:58:02.811Z,11.75
2022-10-04T07:59:02.799Z,11.77
2022-10-04T08:00:03.059Z,11.80
2022-10-04T08:01:02.956Z,11.86
2022-10-04T08:02:03.109Z,11.87
2022-10-04T08:03:03.096Z,11.93
2022-10-04T08:04:03.126Z,12.01
2022-10-04T08:05:02.828Z,12.05
2022-10-04T08:06:02.888Z,12.08
2022-10-04T08:07:03.051Z,12.15
2022-10-04T08:08:03.016Z,12.20
2022-10-04T08:09:03.063Z,12.26
2022-10-04T08:10:03.117Z,12.33
2022-10-04T08:11:03.137Z,12.37
2022-10-04T08:12:02.481Z,12.41
2022-10-04T08:13:02.370Z,12.46
2022-10-04T08:14:02.156Z,12.51
2022-10-04T08:15:02.319Z,12.56
2022-10-04T08:16:02.638Z,12.60
2022-10-04T08:17:02.671Z,12.62
2022-10-04T08:18:02.590Z,12.63
2022-10-04T08:19:02.707Z,12.69
2022-10-04T08:20:02.344Z,12.74
2022-10-04T08:21:02.947Z,12.77
2022-10-04T08:22:02.262Z,12.77
2022-10-04T08:23:02.221Z,12.78
2022-10-04T08:24:02.189Z,12.79
2022-10-04T08:25:01.918Z,12.78
2022-10-04T08:26:01.901Z,12.82
2022-10-04T08:27:02.726Z,12.93
2022-10-04T08:28:02.667Z,12.99
2022-10-04T08:29:02.612Z,13.06
2022-10-04T08:30:02.611Z,13.12
2022-10-04T08:31:02.552Z,13.15
2022-10-04T08:32:05.198Z,13.20
2022-10-04T08:33:02.972Z,13.21
2022-10-04T08:34:02.775Z,13.20
2022-10-04T08:35:03.051Z,13.21
2022-10-04T08:36:02.897Z,13.20
2022-10-04T08:37:02.621Z,13.24
2022-10-04T08:38:02.738Z,13.25
2022-10-04T08:39:02.475Z,13.27
2022-10-04T08:40:02.455Z,13.27
2022-10-04T08:41:02.435Z,13.27
2022-10-04T08:42:03.072Z,13.27
2022-10-04T08:43:02.732Z,13.33
2022-10-04T08:44:02.698Z,13.38
2022-10-04T08:45:02.653Z,13.43
2022-10-04T08:46:02.883Z,13.43
2022-10-04T08:47:03.073Z,13.43
2022-10-04T08:48:03.123Z,13.40
2022-10-04T08:49:03.046Z,13.41
2022-10-04T08:50:03.201Z,13.44
2022-10-04T08:51:02.952Z,13.52
2022-10-04T08:52:03.135Z,13.52
2022-10-04T08:53:05.406Z,13.58
2022-10-04T08:54:02.956Z,13.58
2022-10-04T08:55:02.961Z,13.63
2022-10-04T08:56:03.012Z,13.65
2022-10-04T08:57:02.679Z,13.67
2022-10-04T08:58:02.452Z,13.71
2022-10-04T08:59:02.236Z,13.74
2022-10-04T09:00:02.244Z,13.79
2022-10-04T09:01:02.311Z,13.81
2022-10-04T09:02:03.054Z,13.83
2022-10-04T09:03:02.946Z,13.84
2022-10-04T09:04:02.732Z,13.89
2022-10-04T09:05:02.683Z,13.92
2022-10-04T09:06:02.596Z,13.98
2022-10-04T09:07:02.675Z,14.02
2022-10-04T09:08:03.131Z,14.04
2022-10-04T09:09:03.183Z,14.10
2022-10-04T09:10:03.176Z,14.13
2022-10-04T09:11:02.788Z,14.16
2022-10-04T09:12:03.041Z,14.17
2022-10-04T09:13:03.601Z,14.21
2022-10-04T09:14:03.307Z,14.28
2022-10-04T09:15:03.320Z,14.34
2022-10-04T09:16:03.129Z,14.38
2022-10-04T09:17:02.818Z,14.42
2022-10-04T09:18:02.722Z,14.46
2022-10-04T09:19:02.768Z,14.52
2022-10-04T09:20:20.014Z,14.53
2022-10-04T09:21:02.743Z,14.56
2022-10-04T09:22:03.417Z,14.57
2022-10-04T09:23:06.370Z,14.60
2022-10-04T09:24:02.786Z,14.60
2022-10-04T09:25:02.919Z,14.64
2022-10-04T09:26:03.253Z,14.68
2022-10-04T09:27:02.034Z,14.78
2022-10-04T09:28:02.646Z,14.84
2022-10-04T09:29:04.912Z,14.91
2022-10-04T09:30:02.640Z,14.93
2022-10-04T09:31:02.363Z,14.99
2022-10-04T09:32:02.456Z,15.03
2022-10-04T09:33:02.851Z,15.11
2022-10-04T09:34:02.831Z,15.17
2022-10-04T09:35:03.087Z,15.23
2022-10-04T09:36:02.491Z,15.27
2022-10-04T09:37:03.351Z,15.30
2022-10-04T09:38:03.180Z,15.36
2022-10-04T09:39:28.435Z,15.46
2022-10-04T09:40:03.118Z,15.54
2022-10-04T09:41:02.891Z,15.61
2022-10-04T09:42:02.065Z,15.70
2022-10-04T09:43:02.244Z,15.79
2022-10-04T09:44:02.692Z,15.82
2022-10-04T09:45:02.059Z,15.88
2022-10-04T09:46:02.647Z,15.93
2022-10-04T09:47:02.236Z,16.01
2022-10-04T09:48:02.708Z,16.11
2022-10-04T09:49:02.565Z,16.20
2022-10-04T09:50:02.543Z,16.26
2022-10-04T09:51:02.644Z,16.35
2022-10-04T09:52:02.288Z,16.44
2022-10-04T09:53:02.243Z,16.53
2022-10-04T09:54:02.604Z,16.58
2022-10-04T09:55:02.309Z,16.68
2022-10-04T09:56:02.523Z,16.75
2022-10-04T09:57:02.560Z,16.85
2022-10-04T09:58:03.101Z,16.92
2022-10-04T09:59:02.954Z,16.93
2022-10-04T10:00:02.736Z,16.96
2022-10-04T10:01:02.862Z,17.04
2022-10-04T10:02:02.024Z,17.07
2022-10-04T10:03:02.492Z,17.08
2022-10-04T10:04:02.307Z,17.10
2022-10-04T10:05:02.271Z,17.15
2022-10-04T10:06:02.335Z,17.23
2022-10-04T10:07:02.405Z,17.33
2022-10-04T10:08:02.590Z,17.38
2022-10-04T10:09:02.496Z,17.40
2022-10-04T10:10:02.533Z,17.46
2022-10-04T10:11:02.491Z,17.55
2022-10-04T10:12:02.468Z,17.57
2022-10-04T10:13:02.429Z,17.63
2022-10-04T10:14:03.052Z,17.69
2022-10-04T10:15:02.694Z,17.73
2022-10-04T10:16:02.826Z,17.81
2022-10-04T10:17:02.071Z,17.87
2022-10-04T10:18:01.836Z,17.89
2022-10-04T10:19:02.264Z,17.91
2022-10-04T10:20:01.663Z,17.94
2022-10-04T10:21:02.069Z,17.97
2022-10-04T10:22:02.358Z,17.97
2022-10-04T10:23:02.850Z,18.06
2022-10-04T10:24:02.597Z,18.15
2022-10-04T10:25:02.638Z,18.27
2022-10-04T10:26:02.534Z,18.33
2022-10-04T10:27:02.558Z,18.42
2022-10-04T10:28:02.971Z,18.50
2022-10-04T10:29:02.887Z,18.55
2022-10-04T10:30:02.749Z,18.59
2022-10-04T10:31:02.728Z,18.65
2022-10-04T10:32:02.742Z,18.70
2022-10-04T10:33:03.083Z,18.76
2022-10-04T10:34:02.761Z,18.82
2022-10-04T10:35:02.689Z,18.87
2022-10-04T10:36:03.060Z,18.94
2022-10-04T10:37:01.856Z,18.99
2022-10-04T10:38:04.653Z,18.98
2022-10-04T10:39:02.002Z,19.02
2022-10-04T10:40:02.024Z,19.02
2022-10-04T10:41:02.349Z,19.02
2022-10-04T10:42:02.204Z,19.08
2022-10-04T10:43:02.394Z,19.13
2022-10-04T10:44:02.061Z,19.14
2022-10-04T10:45:02.038Z,19.21
2022-10-04T10:46:02.364Z,19.23
2022-10-04T10:47:02.633Z,19.18
2022-10-04T10:48:02.749Z,19.13
2022-10-04T10:49:02.550Z,19.10
2022-10-04T10:50:02.657Z,19.10
2022-10-04T10:51:02.441Z,19.13
2022-10-04T10:52:02.295Z,19.14
2022-10-04T10:53:02.228Z,19.20
2022-10-04T10:54:02.231Z,19.23
2022-10-04T10:55:02.304Z,19.24
2022-10-04T10:56:02.211Z,19.29
2022-10-04T10:57:01.976Z,19.31
2022-10-04T10:58:01.693Z,19.39
2022-10-04T10:59:02.081Z,19.46
2022-10-04T11:00:02.114Z,19.51
2022-10-04T11:01:02.142Z,19.53
2022-10-04T11:02:02.743Z,19.55
2022-10-04T11:03:12.742Z,19.47
2022-10-04T11:04:02.732Z,19.40
2022-10-04T11:05:02.696Z,19.38
2022-10-04T11:06:02.774Z,19.42
2022-10-04T11:07:02.754Z,19.51
2022-10-04T11:08:02.790Z,19.55
2022-10-04T11:09:02.478Z,19.55
2022-10-04T11:10:02.720Z,19.57
2022-10-04T11:11:02.753Z,19.63
2022-10-04T11:12:02.951Z,19.60
2022-10-04T11:13:02.965Z,19.66
2022-10-04T11:14:03.005Z,19.69
2022-10-04T11:15:02.933Z,19.72
2022-10-04T11:16:02.882Z,19.75
2022-10-04T11:17:02.676Z,19.73
2022-10-04T11:18:02.610Z,19.70
2022-10-04T11:19:02.966Z,19.75
2022-10-04T11:20:02.543Z,19.78
2022-10-04T11:21:02.424Z,19.80
2022-10-04T11:22:02.401Z,19.79
2022-10-04T11:23:02.281Z,19.83
2022-10-04T11:24:02.188Z,19.88
2022-10-04T11:25:02.165Z,19.84
2022-10-04T11:26:02.037Z,19.80
2022-10-04T11:27:02.992Z,19.73
2022-10-04T11:28:03.132Z,19.69
2022-10-04T11:29:03.094Z,19.70
2022-10-04T11:30:02.727Z,19.70
2022-10-04T11:31:03.242Z,19.76
2022-10-04T11:32:02.777Z,19.84
2022-10-04T11:33:02.485Z,19.93
2022-10-04T11:34:02.533Z,19.98
2022-10-04T11:35:02.680Z,20.05
2022-10-04T11:36:02.660Z,20.12
2022-10-04T11:37:03.030Z,20.23
2022-10-04T11:38:03.061Z,20.30
2022-10-04T11:39:03.038Z,20.42
2022-10-04T11:40:03.049Z,20.51
2022-10-04T11:41:02.683Z,20.59
2022-10-04T11:42:02.487Z,20.66
2022-10-04T11:43:02.540Z,20.74
2022-10-04T11:44:02.333Z,20.80
2022-10-04T11:45:02.529Z,20.89
2022-10-04T11:46:02.419Z,20.96
2022-10-04T11:47:03.242Z,21.01
2022-10-04T11:48:02.622Z,20.96
2022-10-04T11:49:02.691Z,21.06
2022-10-04T11:50:02.814Z,21.14
2022-10-04T11:51:02.753Z,21.24
2022-10-04T11:52:03.397Z,21.30
2022-10-04T11:53:03.042Z,21.41
2022-10-04T11:54:03.174Z,21.42
2022-10-04T11:55:03.108Z,21.45
2022-10-04T11:56:02.766Z,21.42
2022-10-04T11:57:03.222Z,21.44
2022-10-04T11:58:03.303Z,21.45
2022-10-04T11:59:03.002Z,21.45
2022-10-04T12:00:03.402Z,21.53
2022-10-04T12:01:03.336Z,21.56
2022-10-04T12:02:02.923Z,21.57
2022-10-04T12:03:03.199Z,21.51
2022-10-04T12:04:02.770Z,21.46
2022-10-04T12:05:02.668Z,21.48
2022-10-04T12:06:02.486Z,21.45
2022-10-04T12:07:03.436Z,21.45
2022-10-04T12:08:02.883Z,21.39
2022-10-04T12:09:03.418Z,21.41
2022-10-04T12:10:03.088Z,21.51
2022-10-04T12:11:03.268Z,21.64
2022-10-04T12:12:03.184Z,21.74
2022-10-04T12:13:02.759Z,21.79
2022-10-04T12:14:02.573Z,21.83
2022-10-04T12:15:02.746Z,21.97
2022-10-04T12:16:03.008Z,22.07
2022-10-04T12:17:03.645Z,22.17
2022-10-04T12:18:03.441Z,22.27
2022-10-04T12:19:03.317Z,22.35
2022-10-04T12:20:03.184Z,22.44
2022-10-04T12:21:03.082Z,22.53
2022-10-04T12:22:02.244Z,22.52
2022-10-04T12:23:02.757Z,22.46
2022-10-04T12:24:02.562Z,22.29
2022-10-04T12:25:02.798Z,22.23
2022-10-04T12:26:02.264Z,22.23
2022-10-04T12:27:02.298Z,22.35
2022-10-04T12:28:02.420Z,22.44
2022-10-04T12:29:02.718Z,22.54
2022-10-04T12:30:02.613Z,22.62
2022-10-04T12:31:02.689Z,22.64
2022-10-04T12:32:02.756Z,22.69
2022-10-04T12:33:02.674Z,22.67
2022-10-04T12:34:03.091Z,22.71
2022-10-04T12:35:02.989Z,22.78
2022-10-04T12:36:02.971Z,22.83
2022-10-04T12:37:02.978Z,22.94
2022-10-04T12:38:03.640Z,22.99
2022-10-04T12:39:03.312Z,23.11
2022-10-04T12:40:03.362Z,23.20
2022-10-04T12:41:03.076Z,23.27
2022-10-04T12:42:03.591Z,23.35
2022-10-04T12:43:02.676Z,23.22
2022-10-04T12:44:03.100Z,23.07
2022-10-04T12:45:02.820Z,23.01
2022-10-04T12:46:02.746Z,22.99
2022-10-04T12:47:02.685Z,22.99
2022-10-04T12:48:03.339Z,22.94
2022-10-04T12:49:03.489Z,22.89
2022-10-04T12:50:03.180Z,22.86
2022-10-04T12:51:03.189Z,22.94
2022-10-04T12:52:03.073Z,22.99
2022-10-04T12:53:03.553Z,23.11
2022-10-04T12:54:03.640Z,23.17
2022-10-04T12:55:03.657Z,23.20
2022-10-04T12:56:03.792Z,23.27
2022-10-04T12:57:03.622Z,23.34
2022-10-04T12:58:02.947Z,23.38
2022-10-04T12:59:02.913Z,23.40
2022-10-04T13:00:03.473Z,23.43
2022-10-04T13:01:02.983Z,23.46
2022-10-04T13:02:03.035Z,23.49
2022-10-04T13:03:02.965Z,23.60
2022-10-04T13:04:02.911Z,23.64
2022-10-04T13:05:02.877Z,23.68
2022-10-04T13:06:02.597Z,23.71
2022-10-04T13:07:02.824Z,23.72
2022-10-04T13:08:03.679Z,23.68